Řízení letového provozu České republiky  
Aktualizace dat:  22.12.2014 07:38:37 UTC English version
   METEO Zobrazení stránky:  22.12.2014 07:41:40 UTC  
vysvětlivky
METAR EDDB 220720Z 24020G30KT 6000 -RADZ SCT008 BKN013 08/07 Q1010 NOSIG=
METAR EDDC 220720Z 24016G27KT 9999 -RA BKN022 07/04 Q1015 NOSIG=
METAR EDDE 220720Z 23023KT 9999 BKN018 07/04 Q1017 TEMPO 24025G40KT BKN014=
METAR EDDF 220720Z 21019KT 9999 OVC020 08/04 Q1024 NOSIG=
METAR EDDM 220720Z 25008KT 9999 SCT025 BKN250 02/M00 Q1027 NOSIG=
METAR EDDN 220720Z 25012KT 9999 OVC021 06/03 Q1025 TEMPO 26020G35KT=
METAR EDDP 220720Z 25026KT 9999 BKN018 08/05 Q1015 TEMPO 24030G45KT=
METAR EDDT 220720Z 25021KT 8000 -RADZ SCT007 BKN010 09/08 Q1010 TEMPO 25020G30KT SCT013=
METAR EDQM 220720Z 23022G32KT 190V260 9000 OVC007 03/02 Q1019=
METAR EPBY 220730Z 25018G28KT 9999 -RA OVC014 08/07 Q1003 =
METAR EPGD 220730Z 28019G29KT 9999 -RA BKN011 08/07 Q0998 =
METAR EPKK 220730Z 25020KT 9999 -RA FEW023 OVC033 05/03 Q1013 =
METAR EPKT 220730Z 22016KT 9999 -RA BKN023 04/03 Q1012 =
METAR EPLL 220730Z 25015KT 8000 -RA BKN008 BKN012 05/04 Q1008 =
METAR EPPO 220730Z 26021G32KT 9999 -RA BKN012 08/06 Q1007 =
METAR EPRZ 220730Z 22013KT 9999 -RA OVC019 03/02 Q1012 =
METAR EPWA 220730Z 24010KT 9999 -RA OVC010 05/04 Q1005 NOSIG=
METAR EPWR 220730Z 28018G31KT 9999 BKN026 10/05 Q1012 =
METAR LHBP 220730Z 20005KT CAVOK 00/M02 Q1023 NOSIG=
METAR LHSM 220715Z 00000KT CAVOK M03/M05 Q1024=
METAR LKCV 220700Z 24011KT 9999 -RA FEW041 SCT070 OVC100 06/05 Q1018 NOSIG=
METAR LKKB 220700Z 25016KT 9999 SCT024 BKN090 OVC100 06/02 Q1018 NOSIG =
METAR LKKU 220702Z 22009KT 180V260 9999 SCT033 05/01 Q1020=
METAR LKKV 220730Z 24012G24KT 180V280 9999 OVC010 04/02 Q1018 RMK REG QNH 1014=
METAR LKLN 220700Z AUTO 26011G23KT 230V290 9999 OVC022 06/02 Q1021=
METAR LKMT 220730Z 22019KT 9999 -RA OVC026 05/01 Q1016 NOSIG RMK REG QNH 1014=
METAR LKNA 220700Z 27012KT 9999 FEW025 BKN090 04/01 Q1019 NOSIG=
METAR LKPD 220700Z 25009KT 9999 -RA OVC027 06/03 Q1018 NOSIG =
METAR LKPR 220730Z 24025G37KT 9999 -RA SCT021 05/02 Q1017 NOSIG RMK REG QNH 1014=
METAR LKTB 220730Z 23012KT 9999 FEW032 05/01 Q1019 NOSIG RMK REG QNH 1014=
METAR LKVO NIL
METAR LOWI 220720Z VRB02KT CAVOK M04/M05 Q1028 NOSIG=
METAR LOWL 220720Z 26019KT 9999 BKN026 05/M00 Q1025 NOSIG=
METAR LOWS 220720Z 18003KT 140V220 CAVOK M02/M02 Q1027 NOSIG=
METAR LOWW 220720Z 27020KT 9999 FEW035 SCT090 BKN250 07/M00 Q1022 NOSIG=
METAR LZIB 220730Z 27014KT 9999 FEW028 SCT034 07/00 Q1022 NOSIG=
METAR LZKZ 220730Z 23011KT 9999 FEW035 BKN080 04/M00 Q1018 NOSIG=
METAR LZPP 220730Z 24007KT 9999 FEW034 BKN046 06/01 Q1021=
METAR LZSL 220730Z 25012KT 9999 OVC027 05/01 Q1018=
METAR LZTT 220730Z 26023KT 8000 -SN FEW008 SCT030 BKN048 01/M00 Q1014 NOSIG=
METAR LZZI 220730Z 25006KT 9999 BKN020 OVC024 04/01 Q1018=